Sinclair, Minnesota
Current Conditions -  °F | °C
As of 2:55 AM on Wednesday 22 Oct 2014 (Local Time) from KFSE Reporting Station
Clear Clear  
Wind Chill: 43°   Ceiling: Unl
Heat Index: 48°   Visibility: 10mi
Dew Point: 39°   Wind: 14mph
Humidity: 71%   Direction: 150°SSE
Pressure: 29.95"   Gusts: 22mph
Location:  47.6306°N, 95.3701°W
Report Text: KFSE 220755Z AUTO 15012G19KT 10SM CLR 09/04 A2995 RMK AO2
Loading
Personal Weather Stations






























Interactive Weather Map
Tropical Storm Tracking
New forecast layout! Learn more

10-Day Weather Forecast

Advertisements
Track Severe Weather on mobile